sensor_id;sensor_type;location;lat;lon;timestamp;temperature;humidity
4314;DHT22;2170;48.794;9.182;2023-07-13T00:01:28;21.10;99.90
4314;DHT22;2170;48.794;9.182;2023-07-13T00:03:56;21.10;99.90
4314;DHT22;2170;48.794;9.182;2023-07-13T00:06:23;21.00;99.90
4314;DHT22;2170;48.794;9.182;2023-07-13T00:08:50;20.90;99.90
4314;DHT22;2170;48.794;9.182;2023-07-13T00:11:17;20.90;99.90
4314;DHT22;2170;48.794;9.182;2023-07-13T00:13:44;20.90;99.90
4314;DHT22;2170;48.794;9.182;2023-07-13T00:16:13;20.90;99.90
4314;DHT22;2170;48.794;9.182;2023-07-13T00:18:40;20.90;99.90
4314;DHT22;2170;48.794;9.182;2023-07-13T00:21:07;20.80;99.90
4314;DHT22;2170;48.794;9.182;2023-07-13T00:23:36;20.80;99.90
4314;DHT22;2170;48.794;9.182;2023-07-13T00:26:04;20.70;99.90
4314;DHT22;2170;48.794;9.182;2023-07-13T00:28:32;20.60;99.90
4314;DHT22;2170;48.794;9.182;2023-07-13T00:30:59;20.60;99.90
4314;DHT22;2170;48.794;9.182;2023-07-13T00:33:28;20.50;99.90
4314;DHT22;2170;48.794;9.182;2023-07-13T00:35:55;20.50;99.90
4314;DHT22;2170;48.794;9.182;2023-07-13T00:38:22;20.40;99.90
4314;DHT22;2170;48.794;9.182;2023-07-13T00:40:49;20.40;99.90
4314;DHT22;2170;48.794;9.182;2023-07-13T00:43:18;20.30;99.90
4314;DHT22;2170;48.794;9.182;2023-07-13T00:46:14;20.30;99.90
4314;DHT22;2170;48.794;9.182;2023-07-13T00:49:02;20.40;99.90
4314;DHT22;2170;48.794;9.182;2023-07-13T00:51:49;20.30;99.90
4314;DHT22;2170;48.794;9.182;2023-07-13T00:54:27;20.20;99.90
4314;DHT22;2170;48.794;9.182;2023-07-13T00:57:16;20.20;99.90
4314;DHT22;2170;48.794;9.182;2023-07-13T00:59:53;20.20;99.90
4314;DHT22;2170;48.794;9.182;2023-07-13T01:02:27;20.20;99.90
4314;DHT22;2170;48.794;9.182;2023-07-13T01:05:22;20.20;99.90
4314;DHT22;2170;48.794;9.182;2023-07-13T01:07:55;20.20;99.90
4314;DHT22;2170;48.794;9.182;2023-07-13T01:10:34;19.80;99.90
4314;DHT22;2170;48.794;9.182;2023-07-13T01:13:17;20.00;99.90
4314;DHT22;2170;48.794;9.182;2023-07-13T01:15:55;20.10;99.90
4314;DHT22;2170;48.794;9.182;2023-07-13T01:18:53;20.00;99.90
4314;DHT22;2170;48.794;9.182;2023-07-13T01:21:31;20.00;99.90
4314;DHT22;2170;48.794;9.182;2023-07-13T01:24:09;20.00;99.90
4314;DHT22;2170;48.794;9.182;2023-07-13T01:26:43;20.00;99.90
4314;DHT22;2170;48.794;9.182;2023-07-13T01:29:25;19.70;99.90
4314;DHT22;2170;48.794;9.182;2023-07-13T01:31:54;19.70;99.90
4314;DHT22;2170;48.794;9.182;2023-07-13T01:34:31;19.80;99.90
4314;DHT22;2170;48.794;9.182;2023-07-13T01:37:01;19.70;99.90
4314;DHT22;2170;48.794;9.182;2023-07-13T01:39:42;19.70;99.90
4314;DHT22;2170;48.794;9.182;2023-07-13T01:42:26;19.60;99.90
4314;DHT22;2170;48.794;9.182;2023-07-13T01:45:06;19.80;99.90
4314;DHT22;2170;48.794;9.182;2023-07-13T01:47:42;19.50;99.90
4314;DHT22;2170;48.794;9.182;2023-07-13T01:50:38;19.70;99.90
4314;DHT22;2170;48.794;9.182;2023-07-13T01:53:26;19.50;99.90
4314;DHT22;2170;48.794;9.182;2023-07-13T01:56:31;19.90;99.90
4314;DHT22;2170;48.794;9.182;2023-07-13T01:59:05;19.80;99.90
4314;DHT22;2170;48.794;9.182;2023-07-13T02:01:52;19.70;99.90
4314;DHT22;2170;48.794;9.182;2023-07-13T02:04:32;19.70;99.90
4314;DHT22;2170;48.794;9.182;2023-07-13T02:07:27;19.60;99.90
4314;DHT22;2170;48.794;9.182;2023-07-13T02:10:29;19.70;99.90
4314;DHT22;2170;48.794;9.182;2023-07-13T02:13:16;19.40;99.90
4314;DHT22;2170;48.794;9.182;2023-07-13T02:16:01;19.60;99.90
4314;DHT22;2170;48.794;9.182;2023-07-13T02:18:45;19.60;99.90
4314;DHT22;2170;48.794;9.182;2023-07-13T02:21:22;19.50;99.90
4314;DHT22;2170;48.794;9.182;2023-07-13T02:24:13;19.50;99.90
4314;DHT22;2170;48.794;9.182;2023-07-13T02:27:00;19.40;99.90
4314;DHT22;2170;48.794;9.182;2023-07-13T02:29:51;19.40;99.90
4314;DHT22;2170;48.794;9.182;2023-07-13T02:32:27;19.40;99.90
4314;DHT22;2170;48.794;9.182;2023-07-13T02:35:25;19.40;99.90
4314;DHT22;2170;48.794;9.182;2023-07-13T02:38:16;19.30;99.90
4314;DHT22;2170;48.794;9.182;2023-07-13T02:40:58;19.30;99.90
4314;DHT22;2170;48.794;9.182;2023-07-13T02:43:43;19.40;99.90
4314;DHT22;2170;48.794;9.182;2023-07-13T02:46:22;19.30;99.90
4314;DHT22;2170;48.794;9.182;2023-07-13T02:48:54;19.10;99.90
4314;DHT22;2170;48.794;9.182;2023-07-13T02:51:39;19.10;99.90
4314;DHT22;2170;48.794;9.182;2023-07-13T02:54:14;19.30;99.90
4314;DHT22;2170;48.794;9.182;2023-07-13T02:56:47;19.20;99.90
4314;DHT22;2170;48.794;9.182;2023-07-13T02:59:35;19.20;99.90
4314;DHT22;2170;48.794;9.182;2023-07-13T03:02:14;19.20;99.90
4314;DHT22;2170;48.794;9.182;2023-07-13T03:05:15;19.10;99.90
4314;DHT22;2170;48.794;9.182;2023-07-13T03:07:54;19.30;99.90
4314;DHT22;2170;48.794;9.182;2023-07-13T03:10:40;18.90;99.90
4314;DHT22;2170;48.794;9.182;2023-07-13T03:13:23;19.30;99.90
4314;DHT22;2170;48.794;9.182;2023-07-13T03:16:17;19.10;99.90
4314;DHT22;2170;48.794;9.182;2023-07-13T03:18:59;19.10;99.90
4314;DHT22;2170;48.794;9.182;2023-07-13T03:21:34;19.00;99.90
4314;DHT22;2170;48.794;9.182;2023-07-13T03:24:04;19.00;99.90
4314;DHT22;2170;48.794;9.182;2023-07-13T03:26:52;19.10;99.90
4314;DHT22;2170;48.794;9.182;2023-07-13T03:29:23;18.80;99.90
4314;DHT22;2170;48.794;9.182;2023-07-13T03:31:58;19.00;99.90
4314;DHT22;2170;48.794;9.182;2023-07-13T03:34:37;19.00;99.90
4314;DHT22;2170;48.794;9.182;2023-07-13T03:37:11;19.00;99.90
4314;DHT22;2170;48.794;9.182;2023-07-13T03:39:45;18.70;99.90
4314;DHT22;2170;48.794;9.182;2023-07-13T03:42:14;19.10;99.90
4314;DHT22;2170;48.794;9.182;2023-07-13T03:44:46;19.00;99.90
4314;DHT22;2170;48.794;9.182;2023-07-13T03:47:30;19.00;99.90
4314;DHT22;2170;48.794;9.182;2023-07-13T03:50:03;19.00;99.90
4314;DHT22;2170;48.794;9.182;2023-07-13T03:52:31;18.90;99.90
4314;DHT22;2170;48.794;9.182;2023-07-13T03:55:09;19.00;99.90
4314;DHT22;2170;48.794;9.182;2023-07-13T03:57:42;19.20;99.90
4314;DHT22;2170;48.794;9.182;2023-07-13T04:00:11;19.00;99.90
4314;DHT22;2170;48.794;9.182;2023-07-13T04:02:49;19.20;99.90
4314;DHT22;2170;48.794;9.182;2023-07-13T04:05:17;19.00;99.90
4314;DHT22;2170;48.794;9.182;2023-07-13T04:07:58;19.00;99.90
4314;DHT22;2170;48.794;9.182;2023-07-13T04:10:26;19.00;99.90
4314;DHT22;2170;48.794;9.182;2023-07-13T04:12:57;19.00;99.90
4314;DHT22;2170;48.794;9.182;2023-07-13T04:15:31;19.10;99.90
4314;DHT22;2170;48.794;9.182;2023-07-13T04:18:11;19.20;99.90
4314;DHT22;2170;48.794;9.182;2023-07-13T04:20:41;19.00;99.90
4314;DHT22;2170;48.794;9.182;2023-07-13T04:23:16;19.00;99.90
4314;DHT22;2170;48.794;9.182;2023-07-13T04:25:47;19.10;99.90
4314;DHT22;2170;48.794;9.182;2023-07-13T04:28:26;19.10;99.90
4314;DHT22;2170;48.794;9.182;2023-07-13T04:31:04;19.10;99.90
4314;DHT22;2170;48.794;9.182;2023-07-13T04:33:50;19.10;99.90
4314;DHT22;2170;48.794;9.182;2023-07-13T04:36:25;19.10;99.90
4314;DHT22;2170;48.794;9.182;2023-07-13T04:39:02;19.10;99.90
4314;DHT22;2170;48.794;9.182;2023-07-13T04:41:42;19.10;99.90
4314;DHT22;2170;48.794;9.182;2023-07-13T04:44:27;19.00;99.90
4314;DHT22;2170;48.794;9.182;2023-07-13T04:47:14;19.10;99.90
4314;DHT22;2170;48.794;9.182;2023-07-13T04:49:53;19.10;99.90
4314;DHT22;2170;48.794;9.182;2023-07-13T04:52:41;19.10;99.90
4314;DHT22;2170;48.794;9.182;2023-07-13T04:55:26;19.20;99.90
4314;DHT22;2170;48.794;9.182;2023-07-13T04:58:16;19.20;99.90
4314;DHT22;2170;48.794;9.182;2023-07-13T05:01:04;19.20;99.90
4314;DHT22;2170;48.794;9.182;2023-07-13T05:03:36;18.90;99.90
4314;DHT22;2170;48.794;9.182;2023-07-13T05:06:14;18.90;99.90
4314;DHT22;2170;48.794;9.182;2023-07-13T05:08:53;19.10;99.90
4314;DHT22;2170;48.794;9.182;2023-07-13T05:11:27;19.10;99.90
4314;DHT22;2170;48.794;9.182;2023-07-13T05:13:55;19.10;99.90
4314;DHT22;2170;48.794;9.182;2023-07-13T05:16:27;19.00;99.90
4314;DHT22;2170;48.794;9.182;2023-07-13T05:19:01;19.00;99.90
4314;DHT22;2170;48.794;9.182;2023-07-13T05:21:37;19.00;99.90
4314;DHT22;2170;48.794;9.182;2023-07-13T05:24:05;19.00;99.90
4314;DHT22;2170;48.794;9.182;2023-07-13T05:26:38;19.10;99.90
4314;DHT22;2170;48.794;9.182;2023-07-13T05:29:40;19.20;99.90
4314;DHT22;2170;48.794;9.182;2023-07-13T05:32:20;19.00;99.90
4314;DHT22;2170;48.794;9.182;2023-07-13T05:34:59;19.30;99.90
4314;DHT22;2170;48.794;9.182;2023-07-13T05:37:45;19.30;99.90
4314;DHT22;2170;48.794;9.182;2023-07-13T05:40:34;19.20;99.90
4314;DHT22;2170;48.794;9.182;2023-07-13T05:43:29;19.50;99.90
4314;DHT22;2170;48.794;9.182;2023-07-13T05:46:11;19.30;99.90
4314;DHT22;2170;48.794;9.182;2023-07-13T05:48:53;19.20;99.90
4314;DHT22;2170;48.794;9.182;2023-07-13T05:51:24;19.20;99.90
4314;DHT22;2170;48.794;9.182;2023-07-13T05:54:01;19.30;99.90
4314;DHT22;2170;48.794;9.182;2023-07-13T05:56:51;19.40;99.90
4314;DHT22;2170;48.794;9.182;2023-07-13T05:59:28;19.40;99.90
4314;DHT22;2170;48.794;9.182;2023-07-13T06:02:15;19.40;99.90
4314;DHT22;2170;48.794;9.182;2023-07-13T06:05:06;19.30;99.90
4314;DHT22;2170;48.794;9.182;2023-07-13T06:07:50;19.30;99.90
4314;DHT22;2170;48.794;9.182;2023-07-13T06:10:31;19.40;99.90
4314;DHT22;2170;48.794;9.182;2023-07-13T06:13:22;19.40;99.90
4314;DHT22;2170;48.794;9.182;2023-07-13T06:15:54;19.50;99.90
4314;DHT22;2170;48.794;9.182;2023-07-13T06:18:27;19.60;99.90
4314;DHT22;2170;48.794;9.182;2023-07-13T06:20:58;20.00;99.90
4314;DHT22;2170;48.794;9.182;2023-07-13T06:23:48;19.90;99.90
4314;DHT22;2170;48.794;9.182;2023-07-13T06:26:31;20.00;99.90
4314;DHT22;2170;48.794;9.182;2023-07-13T06:29:30;19.80;99.90
4314;DHT22;2170;48.794;9.182;2023-07-13T06:32:26;19.70;99.90
4314;DHT22;2170;48.794;9.182;2023-07-13T06:35:19;19.40;99.90
4314;DHT22;2170;48.794;9.182;2023-07-13T06:38:04;19.90;99.90
4314;DHT22;2170;48.794;9.182;2023-07-13T06:40:51;20.10;99.90
4314;DHT22;2170;48.794;9.182;2023-07-13T06:43:55;20.50;99.90
4314;DHT22;2170;48.794;9.182;2023-07-13T06:47:15;20.70;99.90
4314;DHT22;2170;48.794;9.182;2023-07-13T06:50:24;20.70;99.90
4314;DHT22;2170;48.794;9.182;2023-07-13T06:53:30;20.70;99.90
4314;DHT22;2170;48.794;9.182;2023-07-13T06:56:13;21.10;99.90
4314;DHT22;2170;48.794;9.182;2023-07-13T06:58:51;21.20;99.90
4314;DHT22;2170;48.794;9.182;2023-07-13T07:01:29;21.10;99.90
4314;DHT22;2170;48.794;9.182;2023-07-13T07:04:15;21.10;99.90
4314;DHT22;2170;48.794;9.182;2023-07-13T07:06:51;21.20;99.90
4314;DHT22;2170;48.794;9.182;2023-07-13T07:12:20;21.40;99.90
4314;DHT22;2170;48.794;9.182;2023-07-13T07:15:00;21.40;99.90
4314;DHT22;2170;48.794;9.182;2023-07-13T07:17:38;21.30;99.90
4314;DHT22;2170;48.794;9.182;2023-07-13T07:20:16;21.50;99.90
4314;DHT22;2170;48.794;9.182;2023-07-13T07:22:58;21.60;99.90
4314;DHT22;2170;48.794;9.182;2023-07-13T07:25:46;21.80;99.90
4314;DHT22;2170;48.794;9.182;2023-07-13T07:28:27;22.00;99.90
4314;DHT22;2170;48.794;9.182;2023-07-13T07:30:57;22.00;99.90
4314;DHT22;2170;48.794;9.182;2023-07-13T07:33:37;22.00;99.90
4314;DHT22;2170;48.794;9.182;2023-07-13T07:36:12;22.00;99.90
4314;DHT22;2170;48.794;9.182;2023-07-13T07:38:52;22.00;99.90
4314;DHT22;2170;48.794;9.182;2023-07-13T07:41:31;22.20;99.90
4314;DHT22;2170;48.794;9.182;2023-07-13T07:44:02;22.20;99.90
4314;DHT22;2170;48.794;9.182;2023-07-13T07:46:33;22.50;99.90
4314;DHT22;2170;48.794;9.182;2023-07-13T07:49:14;22.60;99.90
4314;DHT22;2170;48.794;9.182;2023-07-13T07:51:47;22.60;99.90
4314;DHT22;2170;48.794;9.182;2023-07-13T07:54:19;22.50;99.90
4314;DHT22;2170;48.794;9.182;2023-07-13T07:56:49;22.30;99.90
4314;DHT22;2170;48.794;9.182;2023-07-13T07:59:31;22.30;99.90
4314;DHT22;2170;48.794;9.182;2023-07-13T08:02:08;22.20;99.90
4314;DHT22;2170;48.794;9.182;2023-07-13T08:04:38;22.40;99.90
4314;DHT22;2170;48.794;9.182;2023-07-13T08:07:12;22.40;99.90
4314;DHT22;2170;48.794;9.182;2023-07-13T08:09:45;22.70;99.90
4314;DHT22;2170;48.794;9.182;2023-07-13T08:12:23;22.90;99.90
4314;DHT22;2170;48.794;9.182;2023-07-13T08:15:04;22.90;99.90
4314;DHT22;2170;48.794;9.182;2023-07-13T08:17:43;22.70;99.90
4314;DHT22;2170;48.794;9.182;2023-07-13T08:20:16;22.80;99.90
4314;DHT22;2170;48.794;9.182;2023-07-13T08:22:44;22.90;99.90
4314;DHT22;2170;48.794;9.182;2023-07-13T08:25:21;23.10;99.90
4314;DHT22;2170;48.794;9.182;2023-07-13T08:27:55;23.00;99.90
4314;DHT22;2170;48.794;9.182;2023-07-13T08:30:28;23.10;99.90
4314;DHT22;2170;48.794;9.182;2023-07-13T08:33:02;23.10;99.90
4314;DHT22;2170;48.794;9.182;2023-07-13T08:35:42;23.30;99.90
4314;DHT22;2170;48.794;9.182;2023-07-13T08:38:20;23.60;99.90
4314;DHT22;2170;48.794;9.182;2023-07-13T08:40:54;23.70;99.90
4314;DHT22;2170;48.794;9.182;2023-07-13T08:43:28;23.50;99.90
4314;DHT22;2170;48.794;9.182;2023-07-13T08:46:02;23.30;99.90
4314;DHT22;2170;48.794;9.182;2023-07-13T08:48:34;23.50;99.90
4314;DHT22;2170;48.794;9.182;2023-07-13T08:51:13;23.80;99.90
4314;DHT22;2170;48.794;9.182;2023-07-13T08:53:49;24.20;99.90
4314;DHT22;2170;48.794;9.182;2023-07-13T08:56:19;23.90;99.90
4314;DHT22;2170;48.794;9.182;2023-07-13T08:58:49;23.70;99.90
4314;DHT22;2170;48.794;9.182;2023-07-13T09:01:24;23.80;99.90
4314;DHT22;2170;48.794;9.182;2023-07-13T09:03:58;24.00;99.90
4314;DHT22;2170;48.794;9.182;2023-07-13T09:06:38;24.20;99.90
4314;DHT22;2170;48.794;9.182;2023-07-13T09:09:10;24.40;99.90
4314;DHT22;2170;48.794;9.182;2023-07-13T09:11:46;24.50;99.90
4314;DHT22;2170;48.794;9.182;2023-07-13T09:14:34;24.90;99.90
4314;DHT22;2170;48.794;9.182;2023-07-13T09:17:05;24.60;99.90
4314;DHT22;2170;48.794;9.182;2023-07-13T09:19:36;24.60;98.90
4314;DHT22;2170;48.794;9.182;2023-07-13T09:22:12;24.70;99.00
4314;DHT22;2170;48.794;9.182;2023-07-13T09:24:50;25.00;99.10
4314;DHT22;2170;48.794;9.182;2023-07-13T09:27:21;25.10;99.20
4314;DHT22;2170;48.794;9.182;2023-07-13T09:29:57;25.40;98.30
4314;DHT22;2170;48.794;9.182;2023-07-13T09:32:28;25.70;97.30
4314;DHT22;2170;48.794;9.182;2023-07-13T09:34:55;25.40;97.70
4314;DHT22;2170;48.794;9.182;2023-07-13T09:37:30;25.10;97.90
4314;DHT22;2170;48.794;9.182;2023-07-13T09:39:59;25.50;97.90
4314;DHT22;2170;48.794;9.182;2023-07-13T09:42:30;25.30;96.90
4314;DHT22;2170;48.794;9.182;2023-07-13T09:45:00;25.10;96.90
4314;DHT22;2170;48.794;9.182;2023-07-13T09:47:29;24.90;97.20
4314;DHT22;2170;48.794;9.182;2023-07-13T09:49:58;25.10;97.20
4314;DHT22;2170;48.794;9.182;2023-07-13T09:52:28;25.70;96.40
4314;DHT22;2170;48.794;9.182;2023-07-13T09:55:24;26.10;96.00
4314;DHT22;2170;48.794;9.182;2023-07-13T09:57:51;25.60;95.30
4314;DHT22;2170;48.794;9.182;2023-07-13T10:00:23;25.40;95.50
4314;DHT22;2170;48.794;9.182;2023-07-13T10:03:02;26.10;95.00
4314;DHT22;2170;48.794;9.182;2023-07-13T10:05:38;26.30;94.70
4314;DHT22;2170;48.794;9.182;2023-07-13T10:08:17;26.40;94.20
4314;DHT22;2170;48.794;9.182;2023-07-13T10:10:44;26.50;94.50
4314;DHT22;2170;48.794;9.182;2023-07-13T10:13:29;26.60;94.30
4314;DHT22;2170;48.794;9.182;2023-07-13T10:15:57;26.40;94.00
4314;DHT22;2170;48.794;9.182;2023-07-13T10:18:25;26.10;93.90
4314;DHT22;2170;48.794;9.182;2023-07-13T10:20:54;26.00;94.20
4314;DHT22;2170;48.794;9.182;2023-07-13T10:23:31;26.00;93.70
4314;DHT22;2170;48.794;9.182;2023-07-13T10:25:59;26.40;93.20
4314;DHT22;2170;48.794;9.182;2023-07-13T10:28:29;27.10;91.80
4314;DHT22;2170;48.794;9.182;2023-07-13T10:30:58;27.20;91.80
4314;DHT22;2170;48.794;9.182;2023-07-13T10:33:25;27.00;91.50
4314;DHT22;2170;48.794;9.182;2023-07-13T10:36:03;26.50;92.00
4314;DHT22;2170;48.794;9.182;2023-07-13T10:38:33;26.70;91.80
4314;DHT22;2170;48.794;9.182;2023-07-13T10:41:04;27.10;90.50
4314;DHT22;2170;48.794;9.182;2023-07-13T10:43:34;27.40;90.60
4314;DHT22;2170;48.794;9.182;2023-07-13T10:46:04;26.90;91.00
4314;DHT22;2170;48.794;9.182;2023-07-13T10:48:33;25.90;91.80
4314;DHT22;2170;48.794;9.182;2023-07-13T10:51:04;26.40;92.20
4314;DHT22;2170;48.794;9.182;2023-07-13T10:53:35;27.00;91.00
4314;DHT22;2170;48.794;9.182;2023-07-13T10:56:03;27.30;90.90
4314;DHT22;2170;48.794;9.182;2023-07-13T10:58:35;26.80;90.70
4314;DHT22;2170;48.794;9.182;2023-07-13T11:01:08;26.90;91.20
4314;DHT22;2170;48.794;9.182;2023-07-13T11:03:38;27.10;90.60
4314;DHT22;2170;48.794;9.182;2023-07-13T11:06:16;27.40;88.80
4314;DHT22;2170;48.794;9.182;2023-07-13T11:08:54;27.10;90.10
4314;DHT22;2170;48.794;9.182;2023-07-13T11:11:35;27.50;90.10
4314;DHT22;2170;48.794;9.182;2023-07-13T11:14:05;27.70;89.50
4314;DHT22;2170;48.794;9.182;2023-07-13T11:16:51;27.00;90.30
4314;DHT22;2170;48.794;9.182;2023-07-13T11:22:22;26.10;91.30
4314;DHT22;2170;48.794;9.182;2023-07-13T11:24:58;26.10;90.90
4314;DHT22;2170;48.794;9.182;2023-07-13T11:27:44;26.80;90.40
4314;DHT22;2170;48.794;9.182;2023-07-13T11:30:31;27.70;89.00
4314;DHT22;2170;48.794;9.182;2023-07-13T11:33:12;28.30;86.40
4314;DHT22;2170;48.794;9.182;2023-07-13T11:35:45;28.70;85.10
4314;DHT22;2170;48.794;9.182;2023-07-13T11:38:16;29.20;84.60
4314;DHT22;2170;48.794;9.182;2023-07-13T11:40:47;29.10;83.80
4314;DHT22;2170;48.794;9.182;2023-07-13T11:43:15;29.20;81.50
4314;DHT22;2170;48.794;9.182;2023-07-13T11:45:42;27.70;84.30
4314;DHT22;2170;48.794;9.182;2023-07-13T11:48:19;27.00;85.90
4314;DHT22;2170;48.794;9.182;2023-07-13T11:50:54;27.40;86.10
4314;DHT22;2170;48.794;9.182;2023-07-13T11:53:22;28.10;84.40
4314;DHT22;2170;48.794;9.182;2023-07-13T11:55:51;28.60;81.70
4314;DHT22;2170;48.794;9.182;2023-07-13T11:58:23;28.00;83.90
4314;DHT22;2170;48.794;9.182;2023-07-13T12:00:50;28.20;82.90
4314;DHT22;2170;48.794;9.182;2023-07-13T12:03:21;28.20;81.80
4314;DHT22;2170;48.794;9.182;2023-07-13T12:05:56;28.60;82.30
4314;DHT22;2170;48.794;9.182;2023-07-13T12:08:24;29.00;81.30
4314;DHT22;2170;48.794;9.182;2023-07-13T12:10:59;29.50;79.10
4314;DHT22;2170;48.794;9.182;2023-07-13T12:13:27;29.20;77.70
4314;DHT22;2170;48.794;9.182;2023-07-13T12:15:55;29.00;79.40
4314;DHT22;2170;48.794;9.182;2023-07-13T12:18:23;29.30;78.80
4314;DHT22;2170;48.794;9.182;2023-07-13T12:20:57;29.90;77.50
4314;DHT22;2170;48.794;9.182;2023-07-13T12:23:28;30.10;76.50
4314;DHT22;2170;48.794;9.182;2023-07-13T12:25:57;29.70;75.40
4314;DHT22;2170;48.794;9.182;2023-07-13T12:28:32;29.70;76.00
4314;DHT22;2170;48.794;9.182;2023-07-13T12:31:00;29.40;74.60
4314;DHT22;2170;48.794;9.182;2023-07-13T12:33:28;28.70;74.80
4314;DHT22;2170;48.794;9.182;2023-07-13T12:35:55;28.60;75.30
4314;DHT22;2170;48.794;9.182;2023-07-13T12:38:24;28.40;75.70
4314;DHT22;2170;48.794;9.182;2023-07-13T12:40:52;28.10;75.60
4314;DHT22;2170;48.794;9.182;2023-07-13T12:43:22;27.80;75.80
4314;DHT22;2170;48.794;9.182;2023-07-13T12:45:57;27.90;76.10
4314;DHT22;2170;48.794;9.182;2023-07-13T12:48:24;28.60;76.10
4314;DHT22;2170;48.794;9.182;2023-07-13T12:50:53;29.00;75.20
4314;DHT22;2170;48.794;9.182;2023-07-13T12:53:22;28.60;74.40
4314;DHT22;2170;48.794;9.182;2023-07-13T12:55:53;28.40;75.60
4314;DHT22;2170;48.794;9.182;2023-07-13T12:58:28;28.40;76.00
4314;DHT22;2170;48.794;9.182;2023-07-13T13:00:56;28.00;76.20
4314;DHT22;2170;48.794;9.182;2023-07-13T13:03:26;28.70;75.60
4314;DHT22;2170;48.794;9.182;2023-07-13T13:05:58;29.30;73.60
4314;DHT22;2170;48.794;9.182;2023-07-13T13:08:29;29.00;72.60
4314;DHT22;2170;48.794;9.182;2023-07-13T13:10:55;29.50;73.20
4314;DHT22;2170;48.794;9.182;2023-07-13T13:13:22;29.30;72.20
4314;DHT22;2170;48.794;9.182;2023-07-13T13:15:51;29.20;72.20
4314;DHT22;2170;48.794;9.182;2023-07-13T13:18:19;29.30;71.80
4314;DHT22;2170;48.794;9.182;2023-07-13T13:20:47;29.20;71.10
4314;DHT22;2170;48.794;9.182;2023-07-13T13:23:16;28.90;70.60
4314;DHT22;2170;48.794;9.182;2023-07-13T13:25:43;28.10;72.30
4314;DHT22;2170;48.794;9.182;2023-07-13T13:28:15;28.50;72.90
4314;DHT22;2170;48.794;9.182;2023-07-13T13:30:43;29.00;71.20
4314;DHT22;2170;48.794;9.182;2023-07-13T13:33:14;29.00;70.70
4314;DHT22;2170;48.794;9.182;2023-07-13T13:35:41;28.90;71.90
4314;DHT22;2170;48.794;9.182;2023-07-13T13:38:11;29.00;72.10
4314;DHT22;2170;48.794;9.182;2023-07-13T13:40:40;29.30;69.50
4314;DHT22;2170;48.794;9.182;2023-07-13T13:43:15;29.10;69.80
4314;DHT22;2170;48.794;9.182;2023-07-13T13:45:43;28.90;71.20
4314;DHT22;2170;48.794;9.182;2023-07-13T13:48:16;29.20;69.80
4314;DHT22;2170;48.794;9.182;2023-07-13T13:50:44;29.30;69.10
4314;DHT22;2170;48.794;9.182;2023-07-13T13:53:12;29.30;68.20
4314;DHT22;2170;48.794;9.182;2023-07-13T13:55:39;28.50;69.00
4314;DHT22;2170;48.794;9.182;2023-07-13T13:58:08;28.60;70.20
4314;DHT22;2170;48.794;9.182;2023-07-13T14:00:35;28.50;68.90
4314;DHT22;2170;48.794;9.182;2023-07-13T14:03:02;27.90;71.10
4314;DHT22;2170;48.794;9.182;2023-07-13T14:05:30;28.20;70.00
4314;DHT22;2170;48.794;9.182;2023-07-13T14:07:57;28.30;69.90
4314;DHT22;2170;48.794;9.182;2023-07-13T14:10:25;28.80;70.60
4314;DHT22;2170;48.794;9.182;2023-07-13T14:12:54;29.10;69.10
4314;DHT22;2170;48.794;9.182;2023-07-13T14:15:24;28.80;70.30
4314;DHT22;2170;48.794;9.182;2023-07-13T14:17:51;28.60;69.40
4314;DHT22;2170;48.794;9.182;2023-07-13T14:20:19;28.20;71.30
4314;DHT22;2170;48.794;9.182;2023-07-13T14:22:47;28.10;71.30
4314;DHT22;2170;48.794;9.182;2023-07-13T14:25:15;28.10;70.80
4314;DHT22;2170;48.794;9.182;2023-07-13T14:27:43;28.30;70.20
4314;DHT22;2170;48.794;9.182;2023-07-13T14:30:13;28.20;70.90
4314;DHT22;2170;48.794;9.182;2023-07-13T14:32:40;28.70;69.60
4314;DHT22;2170;48.794;9.182;2023-07-13T14:35:08;28.30;69.20
4314;DHT22;2170;48.794;9.182;2023-07-13T14:37:36;28.70;67.70
4314;DHT22;2170;48.794;9.182;2023-07-13T14:40:12;28.90;67.00
4314;DHT22;2170;48.794;9.182;2023-07-13T14:42:38;28.70;66.50
4314;DHT22;2170;48.794;9.182;2023-07-13T14:45:09;29.20;67.20
4314;DHT22;2170;48.794;9.182;2023-07-13T14:47:38;28.60;68.10
4314;DHT22;2170;48.794;9.182;2023-07-13T14:50:07;28.60;68.90
4314;DHT22;2170;48.794;9.182;2023-07-13T14:52:38;28.80;68.90
4314;DHT22;2170;48.794;9.182;2023-07-13T14:55:09;29.10;69.00
4314;DHT22;2170;48.794;9.182;2023-07-13T14:57:36;28.40;68.90
4314;DHT22;2170;48.794;9.182;2023-07-13T15:00:04;28.30;69.40
4314;DHT22;2170;48.794;9.182;2023-07-13T15:02:34;28.90;68.90
4314;DHT22;2170;48.794;9.182;2023-07-13T15:05:02;28.60;68.20
4314;DHT22;2170;48.794;9.182;2023-07-13T15:07:31;28.40;69.70
4314;DHT22;2170;48.794;9.182;2023-07-13T15:09:59;28.60;69.00
4314;DHT22;2170;48.794;9.182;2023-07-13T15:12:27;28.00;70.80
4314;DHT22;2170;48.794;9.182;2023-07-13T15:14:54;28.50;70.90
4314;DHT22;2170;48.794;9.182;2023-07-13T15:17:26;28.60;70.20
4314;DHT22;2170;48.794;9.182;2023-07-13T15:19:54;29.20;69.20
4314;DHT22;2170;48.794;9.182;2023-07-13T15:22:21;29.80;68.50
4314;DHT22;2170;48.794;9.182;2023-07-13T15:24:48;29.40;68.10
4314;DHT22;2170;48.794;9.182;2023-07-13T15:27:15;29.40;67.50
4314;DHT22;2170;48.794;9.182;2023-07-13T15:29:43;29.10;67.70
4314;DHT22;2170;48.794;9.182;2023-07-13T15:32:13;29.30;67.60
4314;DHT22;2170;48.794;9.182;2023-07-13T15:34:40;29.70;66.50
4314;DHT22;2170;48.794;9.182;2023-07-13T15:37:12;29.60;65.60
4314;DHT22;2170;48.794;9.182;2023-07-13T15:39:40;29.40;66.90
4314;DHT22;2170;48.794;9.182;2023-07-13T15:42:09;29.80;65.60
4314;DHT22;2170;48.794;9.182;2023-07-13T15:44:39;29.70;66.30
4314;DHT22;2170;48.794;9.182;2023-07-13T15:47:10;29.50;65.00
4314;DHT22;2170;48.794;9.182;2023-07-13T15:49:38;28.80;66.80
4314;DHT22;2170;48.794;9.182;2023-07-13T15:52:05;28.90;66.90
4314;DHT22;2170;48.794;9.182;2023-07-13T15:54:35;29.10;66.90
4314;DHT22;2170;48.794;9.182;2023-07-13T15:57:03;29.30;66.40
4314;DHT22;2170;48.794;9.182;2023-07-13T15:59:29;28.70;67.00
4314;DHT22;2170;48.794;9.182;2023-07-13T16:01:56;28.60;67.70
4314;DHT22;2170;48.794;9.182;2023-07-13T16:04:24;29.10;66.80
4314;DHT22;2170;48.794;9.182;2023-07-13T16:06:51;28.70;66.10
4314;DHT22;2170;48.794;9.182;2023-07-13T16:09:19;28.90;66.60
4314;DHT22;2170;48.794;9.182;2023-07-13T16:11:47;28.80;66.40
4314;DHT22;2170;48.794;9.182;2023-07-13T16:14:15;28.50;66.90
4314;DHT22;2170;48.794;9.182;2023-07-13T16:16:43;28.10;67.60
4314;DHT22;2170;48.794;9.182;2023-07-13T16:19:11;28.10;67.40
4314;DHT22;2170;48.794;9.182;2023-07-13T16:21:42;28.00;68.00
4314;DHT22;2170;48.794;9.182;2023-07-13T16:24:16;28.60;67.70
4314;DHT22;2170;48.794;9.182;2023-07-13T16:26:45;28.30;66.30
4314;DHT22;2170;48.794;9.182;2023-07-13T16:29:14;28.30;66.80
4314;DHT22;2170;48.794;9.182;2023-07-13T16:31:42;27.90;67.60
4314;DHT22;2170;48.794;9.182;2023-07-13T16:34:09;28.00;68.00
4314;DHT22;2170;48.794;9.182;2023-07-13T16:36:36;28.00;68.50
4314;DHT22;2170;48.794;9.182;2023-07-13T16:39:11;28.40;67.60
4314;DHT22;2170;48.794;9.182;2023-07-13T16:41:38;28.10;67.90
4314;DHT22;2170;48.794;9.182;2023-07-13T16:44:10;27.60;69.30
4314;DHT22;2170;48.794;9.182;2023-07-13T16:46:37;27.50;69.60
4314;DHT22;2170;48.794;9.182;2023-07-13T16:49:08;26.90;69.60
4314;DHT22;2170;48.794;9.182;2023-07-13T16:51:37;26.90;70.30
4314;DHT22;2170;48.794;9.182;2023-07-13T16:54:07;27.80;69.40
4314;DHT22;2170;48.794;9.182;2023-07-13T16:56:35;27.80;69.20
4314;DHT22;2170;48.794;9.182;2023-07-13T16:59:11;27.70;69.30